createdAt,value
2022-12-03T00:00:36.723Z,44.85
2022-12-03T00:03:06.176Z,49.92
2022-12-03T00:05:41.716Z,45.15
2022-12-03T00:08:13.990Z,47.90
2022-12-03T00:10:44.266Z,49.58
2022-12-03T00:13:12.855Z,51.03
2022-12-03T00:15:42.235Z,47.65
2022-12-03T00:18:11.875Z,47.45
2022-12-03T00:20:42.838Z,52.08
2022-12-03T00:23:11.863Z,48.65
2022-12-03T00:25:43.928Z,50.90
2022-12-03T00:28:12.621Z,48.15
2022-12-03T00:30:43.299Z,49.38
2022-12-03T00:33:12.040Z,50.33
2022-12-03T00:35:42.462Z,52.72
2022-12-03T00:38:12.853Z,46.05
2022-12-03T00:40:47.723Z,50.13
2022-12-03T00:43:17.957Z,48.63
2022-12-03T00:45:47.906Z,52.80
2022-12-03T00:48:17.479Z,45.67
2022-12-03T00:50:46.342Z,49.50
2022-12-03T00:53:15.816Z,51.03
2022-12-03T00:55:46.177Z,51.60
2022-12-03T00:58:15.912Z,50.70
2022-12-03T01:00:44.702Z,55.30
2022-12-03T01:03:13.862Z,51.38
2022-12-03T01:05:42.847Z,50.17
2022-12-03T01:08:12.622Z,51.25
2022-12-03T01:10:41.860Z,51.80
2022-12-03T01:13:14.648Z,54.22
2022-12-03T01:15:44.090Z,50.42
2022-12-03T01:18:13.901Z,44.92
2022-12-03T01:20:43.907Z,47.10
2022-12-03T01:23:14.501Z,47.13
2022-12-03T01:25:44.260Z,53.88
2022-12-03T01:28:16.320Z,51.85
2022-12-03T01:31:02.796Z,47.50
2022-12-03T01:33:35.500Z,52.75
2022-12-03T01:36:04.373Z,46.88
2022-12-03T01:38:34.290Z,45.95
2022-12-03T01:41:10.104Z,48.38
2022-12-03T01:43:42.618Z,52.10
2022-12-03T01:46:13.393Z,46.05
2022-12-03T01:48:42.888Z,47.40
2022-12-03T01:51:16.348Z,48.33
2022-12-03T01:53:48.665Z,45.42
2022-12-03T01:56:21.298Z,48.17
2022-12-03T01:58:52.049Z,45.55
2022-12-03T02:01:21.131Z,49.30
2022-12-03T02:03:50.488Z,48.53
2022-12-03T02:06:23.684Z,48.20
2022-12-03T02:08:59.484Z,48.70
2022-12-03T02:11:34.781Z,49.95
2022-12-03T02:14:10.667Z,46.55
2022-12-03T02:16:41.735Z,43.80
2022-12-03T02:19:25.807Z,48.58
2022-12-03T02:22:06.001Z,47.97
2022-12-03T02:24:41.864Z,48.75
2022-12-03T02:27:14.527Z,47.60
2022-12-03T02:29:43.181Z,46.63
2022-12-03T02:32:12.215Z,52.85
2022-12-03T02:34:43.631Z,53.05
2022-12-03T02:37:19.579Z,46.58
2022-12-03T02:39:54.949Z,48.90
2022-12-03T02:42:38.360Z,46.07
2022-12-03T02:45:16.256Z,46.60
2022-12-03T02:47:51.770Z,49.03
2022-12-03T02:50:28.693Z,50.58
2022-12-03T02:53:00.783Z,48.53
2022-12-03T02:55:36.527Z,48.75
2022-12-03T02:58:09.202Z,57.20
2022-12-03T03:00:39.171Z,48.00
2022-12-03T03:03:09.513Z,52.05
2022-12-03T03:05:41.432Z,51.30
2022-12-03T03:08:13.667Z,49.88
2022-12-03T03:10:44.613Z,56.20
2022-12-03T03:13:19.749Z,55.95
2022-12-03T03:15:50.252Z,53.67
2022-12-03T03:18:20.640Z,49.55
2022-12-03T03:20:50.580Z,56.03
2022-12-03T03:23:24.351Z,56.33
2022-12-03T03:26:01.540Z,53.90
2022-12-03T03:28:35.403Z,56.75
2022-12-03T03:31:09.482Z,56.30
2022-12-03T03:33:40.430Z,55.67
2022-12-03T03:36:11.152Z,49.90
2022-12-03T03:38:42.113Z,56.25
2022-12-03T03:41:12.576Z,58.70
2022-12-03T03:43:45.830Z,55.60
2022-12-03T03:46:17.101Z,53.47
2022-12-03T03:48:46.295Z,55.30
2022-12-03T03:51:18.343Z,54.47
2022-12-03T03:53:51.126Z,52.10
2022-12-03T03:56:24.928Z,60.15
2022-12-03T03:58:56.841Z,54.33
2022-12-03T04:01:26.282Z,62.03
2022-12-03T04:03:56.073Z,56.42
2022-12-03T04:06:25.719Z,57.55
2022-12-03T04:08:58.097Z,58.75
2022-12-03T04:11:44.048Z,58.00
2022-12-03T04:14:16.376Z,59.65
2022-12-03T04:16:45.481Z,60.47
2022-12-03T04:19:14.004Z,64.25
2022-12-03T04:22:00.120Z,59.05
2022-12-03T04:24:29.092Z,54.67
2022-12-03T04:27:15.985Z,59.42
2022-12-03T04:29:47.439Z,59.92
2022-12-03T04:32:35.600Z,61.00
2022-12-03T04:35:24.552Z,55.83
2022-12-03T04:37:53.632Z,54.42
2022-12-03T04:40:39.622Z,60.63
2022-12-03T04:43:10.068Z,58.10
2022-12-03T04:45:42.242Z,54.15
2022-12-03T04:48:14.809Z,59.88
2022-12-03T04:50:44.108Z,57.75
2022-12-03T04:53:13.277Z,56.92
2022-12-03T04:55:42.326Z,58.33
2022-12-03T04:58:12.809Z,61.22
2022-12-03T05:00:43.652Z,57.65
2022-12-03T05:03:13.162Z,51.88
2022-12-03T05:05:42.860Z,55.47
2022-12-03T05:08:13.016Z,55.53
2022-12-03T05:10:42.423Z,60.38
2022-12-03T05:13:11.408Z,56.10
2022-12-03T05:15:40.493Z,56.10
2022-12-03T05:18:16.796Z,54.20
2022-12-03T05:20:53.202Z,55.33
2022-12-03T05:23:24.886Z,55.40
2022-12-03T05:25:56.297Z,54.25
2022-12-03T05:28:26.070Z,51.97
2022-12-03T05:30:56.067Z,49.38
2022-12-03T05:33:27.095Z,50.38
2022-12-03T05:35:55.543Z,51.85
2022-12-03T05:38:23.889Z,53.90
2022-12-03T05:40:55.587Z,49.40
2022-12-03T05:43:23.229Z,51.13
2022-12-03T05:45:53.705Z,51.78
2022-12-03T05:48:22.979Z,52.42
2022-12-03T05:50:54.429Z,55.65
2022-12-03T05:53:23.778Z,53.53
2022-12-03T05:55:52.640Z,50.80
2022-12-03T05:58:22.645Z,53.28
2022-12-03T06:00:53.863Z,56.90
2022-12-03T06:03:22.979Z,54.40
2022-12-03T06:05:54.128Z,53.33
2022-12-03T06:08:22.590Z,53.10
2022-12-03T06:10:52.716Z,53.10
2022-12-03T06:13:22.218Z,57.17
2022-12-03T06:15:52.572Z,50.35
2022-12-03T06:18:22.140Z,60.33
2022-12-03T06:20:56.126Z,54.47
2022-12-03T06:23:25.226Z,51.08
2022-12-03T06:25:54.181Z,51.05
2022-12-03T06:28:24.136Z,57.25
2022-12-03T06:30:55.065Z,59.75
2022-12-03T06:33:27.405Z,56.42
2022-12-03T06:35:59.604Z,55.60
2022-12-03T06:38:28.368Z,51.08
2022-12-03T06:40:58.083Z,54.75
2022-12-03T06:43:28.420Z,55.22
2022-12-03T06:45:57.346Z,55.00
2022-12-03T06:48:27.282Z,53.75
2022-12-03T06:51:13.047Z,53.88
2022-12-03T06:53:42.819Z,55.30
2022-12-03T06:56:12.408Z,58.17
2022-12-03T06:58:41.595Z,54.03
2022-12-03T07:01:12.208Z,60.83
2022-12-03T07:03:43.015Z,55.67
2022-12-03T07:06:13.235Z,57.65
2022-12-03T07:08:42.430Z,55.13
2022-12-03T07:11:31.404Z,53.85
2022-12-03T07:14:06.689Z,62.58
2022-12-03T07:16:36.973Z,60.33
2022-12-03T07:19:09.209Z,56.25
2022-12-03T07:21:42.869Z,58.00
2022-12-03T07:24:11.863Z,57.70
2022-12-03T07:26:40.915Z,55.92
2022-12-03T07:29:11.835Z,61.72
2022-12-03T07:31:40.567Z,59.30
2022-12-03T07:34:09.214Z,61.53
2022-12-03T07:36:39.531Z,53.42
2022-12-03T07:39:08.526Z,53.80
2022-12-03T07:41:37.347Z,53.80
2022-12-03T07:44:12.419Z,52.72
2022-12-03T07:46:44.836Z,55.45
2022-12-03T07:49:14.422Z,52.97
2022-12-03T07:51:54.136Z,54.97
2022-12-03T07:54:24.411Z,55.05
2022-12-03T07:57:00.951Z,55.90
2022-12-03T07:59:31.027Z,65.78
2022-12-03T08:02:00.809Z,65.28
2022-12-03T08:04:29.565Z,68.78
2022-12-03T08:07:00.060Z,63.63
2022-12-03T08:09:29.214Z,63.58
2022-12-03T08:12:05.169Z,62.95
2022-12-03T08:14:34.068Z,62.47
2022-12-03T08:17:04.015Z,65.20
2022-12-03T08:19:33.056Z,64.28
2022-12-03T08:22:03.830Z,65.68
2022-12-03T08:24:32.280Z,60.30
2022-12-03T08:27:01.927Z,67.75
2022-12-03T08:29:33.581Z,66.70
2022-12-03T08:32:01.921Z,61.22
2022-12-03T08:34:43.791Z,59.38
2022-12-03T08:37:19.473Z,57.65
2022-12-03T08:39:51.288Z,61.08
2022-12-03T08:42:43.765Z,62.65
2022-12-03T08:45:41.085Z,62.40
2022-12-03T08:48:34.142Z,60.88
2022-12-03T08:51:10.404Z,56.10
2022-12-03T08:53:47.797Z,59.58
2022-12-03T08:56:25.233Z,59.42
2022-12-03T08:58:56.889Z,56.47
2022-12-03T09:01:45.723Z,58.20
2022-12-03T09:04:26.108Z,62.97
2022-12-03T09:06:56.820Z,53.90
2022-12-03T09:09:27.921Z,55.42
2022-12-03T09:11:57.713Z,52.38
2022-12-03T09:14:31.748Z,53.42
2022-12-03T09:17:00.791Z,48.88
2022-12-03T09:19:32.529Z,50.92
2022-12-03T09:22:03.346Z,56.20
2022-12-03T09:24:33.417Z,59.22
2022-12-03T09:27:02.363Z,48.58
2022-12-03T09:29:30.922Z,49.50
2022-12-03T09:31:59.337Z,52.80
2022-12-03T09:34:30.789Z,51.70
2022-12-03T09:36:59.060Z,54.08
2022-12-03T09:39:27.920Z,51.30
2022-12-03T09:41:59.058Z,53.55
2022-12-03T09:44:34.645Z,48.55
2022-12-03T09:47:05.665Z,50.08
2022-12-03T09:49:40.396Z,54.25
2022-12-03T09:52:13.678Z,54.25
2022-12-03T09:54:47.684Z,58.45
2022-12-03T09:57:19.555Z,55.15
2022-12-03T09:59:48.665Z,58.55
2022-12-03T10:02:24.950Z,59.22
2022-12-03T10:04:55.248Z,53.47
2022-12-03T10:07:24.118Z,51.42
2022-12-03T10:09:54.594Z,58.45
2022-12-03T10:12:26.082Z,58.55
2022-12-03T10:14:58.883Z,60.60
2022-12-03T10:17:30.384Z,53.30
2022-12-03T10:19:59.717Z,64.82
2022-12-03T10:22:37.015Z,67.03
2022-12-03T10:25:14.320Z,56.03
2022-12-03T10:27:57.413Z,62.95
2022-12-03T10:30:28.761Z,59.28
2022-12-03T10:33:05.751Z,65.15
2022-12-03T10:35:42.222Z,59.60
2022-12-03T10:38:23.935Z,58.03
2022-12-03T10:40:52.901Z,65.47
2022-12-03T10:43:26.477Z,60.22
2022-12-03T10:46:23.075Z,63.85
2022-12-03T10:49:13.063Z,61.83
2022-12-03T10:51:42.264Z,57.10
2022-12-03T10:54:23.193Z,67.68
2022-12-03T10:56:54.849Z,60.22
2022-12-03T10:59:28.829Z,68.43
2022-12-03T11:01:57.805Z,65.90
2022-12-03T11:04:36.795Z,67.38
2022-12-03T11:07:16.632Z,63.33
2022-12-03T11:09:50.201Z,68.72
2022-12-03T11:12:24.231Z,63.40
2022-12-03T11:15:15.827Z,67.53
2022-12-03T11:17:48.339Z,67.55
2022-12-03T11:21:07.526Z,67.90
2022-12-03T11:24:07.108Z,63.53
2022-12-03T11:27:23.273Z,64.80
2022-12-03T11:30:11.284Z,60.47
2022-12-03T11:33:23.236Z,65.65
2022-12-03T11:36:41.975Z,67.32
2022-12-03T11:39:11.785Z,66.20
2022-12-03T11:41:41.508Z,69.93
2022-12-03T11:44:34.797Z,67.35
2022-12-03T11:47:16.558Z,68.82
2022-12-03T11:49:52.285Z,68.85
2022-12-03T11:52:30.967Z,71.10
2022-12-03T11:55:34.466Z,69.47
2022-12-03T11:58:28.432Z,67.88
2022-12-03T12:04:38.062Z,72.82
2022-12-03T12:07:43.075Z,69.55
2022-12-03T12:10:54.483Z,73.15
2022-12-03T12:13:57.169Z,68.00
2022-12-03T12:16:55.761Z,78.85
2022-12-03T12:19:38.677Z,76.13
2022-12-03T12:22:34.605Z,80.93
2022-12-03T12:31:39.721Z,82.22
2022-12-03T12:34:14.392Z,70.70
2022-12-03T12:36:43.727Z,85.00
2022-12-03T12:39:14.935Z,80.22
2022-12-03T12:41:53.719Z,88.07
2022-12-03T12:44:26.361Z,79.75
2022-12-03T12:46:58.442Z,81.15
2022-12-03T12:49:29.143Z,81.75
2022-12-03T12:52:01.093Z,78.22
2022-12-03T12:54:30.597Z,79.03
2022-12-03T12:57:02.828Z,82.53
2022-12-03T12:59:32.179Z,82.47
2022-12-03T13:02:08.585Z,86.07
2022-12-03T13:04:45.302Z,83.65
2022-12-03T13:07:14.335Z,79.03
2022-12-03T13:09:42.955Z,77.18
2022-12-03T13:12:23.995Z,81.55
2022-12-03T13:14:53.293Z,81.65
2022-12-03T13:17:27.105Z,71.00
2022-12-03T13:20:07.041Z,83.68
2022-12-03T13:22:37.969Z,76.53
2022-12-03T13:28:27.585Z,72.72
2022-12-03T13:31:16.560Z,77.22
2022-12-03T13:33:44.914Z,75.00
2022-12-03T13:36:16.456Z,69.35
2022-12-03T13:38:46.208Z,72.72
2022-12-03T13:41:37.964Z,71.13
2022-12-03T13:44:21.950Z,80.28
2022-12-03T13:46:51.768Z,70.93
2022-12-03T13:49:26.865Z,75.25
2022-12-03T13:51:56.001Z,75.03
2022-12-03T13:54:29.615Z,72.80
2022-12-03T13:57:00.222Z,73.68
2022-12-03T13:59:32.968Z,73.35
2022-12-03T14:02:02.024Z,70.10
2022-12-03T14:04:31.405Z,72.00
2022-12-03T14:07:00.915Z,72.75
2022-12-03T14:09:32.155Z,70.10
2022-12-03T14:12:19.588Z,63.00
2022-12-03T14:14:50.481Z,70.68
2022-12-03T14:17:19.681Z,65.30
2022-12-03T14:19:50.426Z,63.75
2022-12-03T14:22:23.955Z,62.40
2022-12-03T14:24:53.208Z,67.25
2022-12-03T14:27:23.251Z,64.28
2022-12-03T14:29:54.326Z,72.97
2022-12-03T14:32:24.204Z,67.00
2022-12-03T14:34:54.796Z,59.67
2022-12-03T14:37:28.245Z,66.13
2022-12-03T14:39:57.533Z,69.15
2022-12-03T14:42:29.704Z,68.75
2022-12-03T14:45:01.037Z,63.28
2022-12-03T14:47:31.090Z,67.32
2022-12-03T14:50:00.387Z,66.97
2022-12-03T14:52:29.761Z,68.63
2022-12-03T14:54:59.030Z,60.10
2022-12-03T14:57:31.345Z,65.55
2022-12-03T15:00:03.967Z,58.03
2022-12-03T15:02:32.912Z,62.03
2022-12-03T15:05:02.113Z,64.00
2022-12-03T15:07:31.895Z,65.10
2022-12-03T15:10:00.878Z,65.90
2022-12-03T15:12:30.292Z,67.55
2022-12-03T15:15:00.829Z,63.13
2022-12-03T15:17:32.200Z,64.38
2022-12-03T15:20:01.665Z,70.15
2022-12-03T15:22:32.206Z,64.10
2022-12-03T15:25:04.486Z,66.47
2022-12-03T15:27:33.478Z,63.95
2022-12-03T15:30:06.115Z,63.50
2022-12-03T15:32:34.890Z,67.90
2022-12-03T15:35:04.104Z,71.20
2022-12-03T15:40:19.960Z,78.35
2022-12-03T15:42:48.910Z,76.05
2022-12-03T15:45:19.773Z,73.85
2022-12-03T15:47:49.037Z,82.55
2022-12-03T15:50:19.231Z,92.57
2022-12-03T15:52:48.734Z,82.35
2022-12-03T15:55:18.283Z,89.55
2022-12-03T15:57:47.782Z,89.55
2022-12-03T16:00:20.145Z,88.38
2022-12-03T16:02:52.937Z,94.07
2022-12-03T16:05:22.293Z,84.88
2022-12-03T16:07:51.101Z,86.68
2022-12-03T16:10:21.645Z,101.30
2022-12-03T16:12:50.879Z,86.57
2022-12-03T16:15:26.669Z,83.65
2022-12-03T16:17:56.208Z,86.20
2022-12-03T16:20:24.805Z,86.25
2022-12-03T16:22:55.786Z,85.10
2022-12-03T16:25:24.505Z,85.95
2022-12-03T16:27:54.945Z,86.82
2022-12-03T16:30:26.551Z,88.57
2022-12-03T16:32:56.105Z,83.68
2022-12-03T16:35:26.229Z,87.38
2022-12-03T16:37:54.968Z,78.95
2022-12-03T16:40:24.091Z,82.30
2022-12-03T16:42:53.487Z,80.40
2022-12-03T16:45:36.024Z,77.95
2022-12-03T16:48:06.808Z,77.20
2022-12-03T16:50:37.732Z,75.43
2022-12-03T16:53:07.091Z,72.82
2022-12-03T16:55:36.255Z,74.88
2022-12-03T16:58:07.657Z,75.70
2022-12-03T17:00:36.586Z,75.40
2022-12-03T17:03:06.782Z,66.38
2022-12-03T17:05:39.928Z,66.68
2022-12-03T17:08:12.237Z,71.97
2022-12-03T17:10:42.105Z,70.55
2022-12-03T17:13:12.966Z,70.85
2022-12-03T17:15:43.167Z,68.53
2022-12-03T17:18:14.138Z,70.50
2022-12-03T17:20:43.428Z,72.18
2022-12-03T17:23:12.771Z,69.45
2022-12-03T17:25:42.799Z,70.07
2022-12-03T17:28:12.097Z,72.88
2022-12-03T17:30:41.480Z,65.53
2022-12-03T17:33:10.485Z,73.13
2022-12-03T17:35:42.364Z,69.75
2022-12-03T17:38:11.444Z,71.18
2022-12-03T17:40:41.619Z,74.70
2022-12-03T17:43:10.897Z,79.50
2022-12-03T17:45:40.571Z,71.32
2022-12-03T17:48:10.644Z,77.28
2022-12-03T17:50:44.437Z,84.20
2022-12-03T17:53:14.113Z,80.97
2022-12-03T17:55:45.277Z,80.60
2022-12-03T17:58:14.627Z,73.85
2022-12-03T18:00:44.044Z,86.65
2022-12-03T18:03:13.654Z,78.95
2022-12-03T18:05:45.825Z,80.13
2022-12-03T18:08:15.895Z,98.53
2022-12-03T18:10:45.575Z,79.82
2022-12-03T18:13:14.282Z,81.20
2022-12-03T18:16:00.908Z,89.10
2022-12-03T18:18:31.071Z,85.15
2022-12-03T18:21:02.413Z,91.32
2022-12-03T18:23:31.616Z,76.85
2022-12-03T18:26:02.113Z,87.32
2022-12-03T18:28:31.849Z,78.35
2022-12-03T18:31:01.889Z,83.78
2022-12-03T18:33:30.855Z,88.18
2022-12-03T18:36:04.981Z,88.25
2022-12-03T18:38:35.401Z,91.78
2022-12-03T18:41:05.999Z,100.03
2022-12-03T18:43:37.045Z,86.32
2022-12-03T18:46:51.243Z,88.57
2022-12-03T18:49:05.952Z,96.53
2022-12-03T18:51:44.508Z,85.90
2022-12-03T18:54:28.841Z,86.78
2022-12-03T18:56:57.669Z,93.78
2022-12-03T18:59:27.308Z,102.88
2022-12-03T19:01:57.612Z,93.82
2022-12-03T19:04:28.918Z,85.18
2022-12-03T19:07:07.394Z,85.43
2022-12-03T19:09:43.921Z,92.53
2022-12-03T19:12:14.998Z,76.72
2022-12-03T19:14:45.275Z,88.15
2022-12-03T19:17:15.670Z,86.10
2022-12-03T19:19:52.759Z,92.07
2022-12-03T19:22:27.781Z,90.95
2022-12-03T19:25:00.579Z,81.10
2022-12-03T19:27:55.271Z,90.55
2022-12-03T19:30:31.960Z,83.22
2022-12-03T19:33:16.396Z,80.85
2022-12-03T19:35:50.995Z,86.30
2022-12-03T19:38:31.175Z,77.88
2022-12-03T19:41:08.775Z,84.55
2022-12-03T19:43:53.454Z,83.93
2022-12-03T19:46:30.304Z,81.25
2022-12-03T19:49:19.805Z,77.13
2022-12-03T19:51:59.308Z,79.75
2022-12-03T19:55:21.626Z,79.50
2022-12-03T19:58:13.296Z,77.93
2022-12-03T20:00:47.593Z,81.30
2022-12-03T20:03:27.246Z,77.10
2022-12-03T20:06:01.959Z,73.05
2022-12-03T20:08:47.352Z,80.68
2022-12-03T20:11:30.100Z,74.00
2022-12-03T20:14:03.356Z,74.43
2022-12-03T20:16:35.999Z,71.07
2022-12-03T20:19:11.148Z,73.93
2022-12-03T20:21:50.087Z,79.85
2022-12-03T20:24:25.026Z,77.13
2022-12-03T20:27:08.159Z,78.82
2022-12-03T20:29:56.602Z,72.70
2022-12-03T20:32:33.363Z,73.50
2022-12-03T20:35:14.359Z,71.03
2022-12-03T20:37:57.218Z,78.75
2022-12-03T20:40:34.549Z,77.20
2022-12-03T20:43:30.860Z,75.70
2022-12-03T20:48:56.101Z,68.40
2022-12-03T20:51:35.050Z,73.78
2022-12-03T20:54:07.700Z,68.38
2022-12-03T20:56:42.865Z,70.85
2022-12-03T21:01:47.437Z,68.07
2022-12-03T21:04:18.430Z,70.80
2022-12-03T21:06:46.924Z,72.80
2022-12-03T21:09:17.216Z,73.47
2022-12-03T21:11:46.891Z,65.47
2022-12-03T21:14:19.909Z,73.63
2022-12-03T21:19:42.883Z,66.43
2022-12-03T21:22:11.670Z,72.68
2022-12-03T21:24:42.876Z,73.30
2022-12-03T21:27:13.626Z,69.72
2022-12-03T21:29:47.662Z,72.25
2022-12-03T21:32:20.868Z,70.80
2022-12-03T21:34:49.491Z,75.65
2022-12-03T21:37:19.243Z,74.10
2022-12-03T21:39:51.052Z,80.25
2022-12-03T21:42:35.486Z,73.90
2022-12-03T21:45:09.120Z,76.53
2022-12-03T21:47:40.050Z,73.47
2022-12-03T21:50:11.814Z,71.93
2022-12-03T21:52:41.319Z,78.80
2022-12-03T21:55:11.193Z,71.65
2022-12-03T21:57:40.264Z,76.53
2022-12-03T22:00:14.879Z,84.43
2022-12-03T22:02:43.971Z,78.10
2022-12-03T22:05:14.201Z,81.68
2022-12-03T22:07:43.028Z,76.50
2022-12-03T22:10:13.304Z,72.60
2022-12-03T22:12:42.700Z,81.28
2022-12-03T22:15:18.814Z,86.97
2022-12-03T22:17:49.208Z,81.40
2022-12-03T22:23:04.516Z,77.97
2022-12-03T22:25:33.557Z,81.75
2022-12-03T22:28:03.068Z,82.65
2022-12-03T22:30:33.889Z,80.97
2022-12-03T22:33:02.640Z,78.95
2022-12-03T22:35:31.978Z,75.93
2022-12-03T22:38:00.586Z,84.18
2022-12-03T22:40:30.588Z,83.70
2022-12-03T22:43:00.607Z,84.88
2022-12-03T22:45:29.815Z,87.32
2022-12-03T22:48:00.514Z,83.15
2022-12-03T22:50:31.466Z,84.03
2022-12-03T22:53:03.098Z,85.38
2022-12-03T22:55:32.214Z,89.43
2022-12-03T22:58:02.226Z,84.80
2022-12-03T23:03:23.459Z,91.95
2022-12-03T23:05:52.455Z,83.60
2022-12-03T23:08:23.080Z,83.65
2022-12-03T23:10:53.795Z,89.95
2022-12-03T23:13:23.746Z,92.55
2022-12-03T23:15:53.700Z,78.22
2022-12-03T23:18:23.982Z,88.20
2022-12-03T23:20:56.049Z,84.00
2022-12-03T23:23:28.000Z,87.95
2022-12-03T23:26:02.299Z,86.97
2022-12-03T23:28:33.057Z,87.10
2022-12-03T23:31:02.230Z,83.88
2022-12-03T23:33:38.198Z,83.07
2022-12-03T23:36:09.064Z,84.03
2022-12-03T23:38:41.797Z,83.35
2022-12-03T23:41:14.209Z,83.88
2022-12-03T23:43:46.270Z,86.78
2022-12-03T23:46:19.128Z,85.32
2022-12-03T23:48:51.842Z,84.63
2022-12-03T23:51:24.296Z,81.22
2022-12-03T23:53:54.613Z,86.13
2022-12-03T23:56:26.189Z,82.78
2022-12-03T23:58:56.368Z,86.85
